Time;durP1;ratioP1;P1;durP2;ratioP2;P2;SDS_P1;SDS_P2;PMS_P1;PMS_P2;Temp;Humidity;BMP_temperature;BMP_pressure;BME280_temperature;BME280_humidity;BME280_pressure;Samples;Min_cycle;Max_cycle;Signal;HPM_P1;HPM_P2
2024/01/21 00:01:29;;;;;;;12.23;7.18;;;;;;;;;;4931826;28;20417;-80
2024/01/21 00:03:55;;;;;;;13.23;8.18;;;;;;;;;;4958871;28;20412;-80
2024/01/21 00:06:21;;;;;;;13.48;7.93;;;;;;;;;;4957106;28;20408;-79
2024/01/21 00:08:47;;;;;;;12.30;8.02;;;;;;;;;;4951798;28;20441;-80
2024/01/21 00:11:14;;;;;;;12.93;8.00;;;;;;;;;;4922285;28;20477;-80
2024/01/21 00:13:40;;;;;;;12.55;7.82;;;;;;;;;;4953681;28;20899;-80
2024/01/21 00:16:06;;;;;;;11.20;7.60;;;;;;;;;;4953736;28;20410;-80
2024/01/21 00:18:32;;;;;;;13.77;7.75;;;;;;;;;;4952747;28;20438;-80
2024/01/21 00:20:58;;;;;;;12.10;7.70;;;;;;;;;;4937605;29;20405;-80
2024/01/21 00:23:24;;;;;;;12.48;7.63;;;;;;;;;;4950462;28;20442;-80
2024/01/21 00:25:52;;;;;;;12.07;7.50;;;;;;;;;;4915322;29;20751;-80
2024/01/21 00:28:18;;;;;;;14.05;8.10;;;;;;;;;;4957312;28;20404;-80
2024/01/21 00:30:44;;;;;;;12.75;7.68;;;;;;;;;;4960737;28;20453;-80
2024/01/21 00:33:10;;;;;;;12.38;7.53;;;;;;;;;;4936277;28;20430;-80
2024/01/21 00:35:36;;;;;;;11.93;7.57;;;;;;;;;;4937417;29;20422;-80
2024/01/21 00:38:02;;;;;;;14.38;8.20;;;;;;;;;;4954839;28;20992;-80
2024/01/21 00:40:28;;;;;;;12.60;7.70;;;;;;;;;;4937331;28;20410;-80
2024/01/21 00:42:59;;;;;;;12.43;8.00;;;;;;;;;;4937129;29;20426;-80
2024/01/21 00:45:25;;;;;;;14.40;7.97;;;;;;;;;;4953055;28;20405;-80
2024/01/21 00:47:51;;;;;;;12.20;7.90;;;;;;;;;;4952154;28;20413;-80
2024/01/21 00:50:17;;;;;;;12.30;7.80;;;;;;;;;;4936808;28;20442;-80
2024/01/21 00:52:43;;;;;;;13.05;8.05;;;;;;;;;;4937036;29;20410;-80
2024/01/21 00:55:09;;;;;;;14.05;7.45;;;;;;;;;;4952985;28;20410;-80
2024/01/21 00:57:36;;;;;;;12.45;8.00;;;;;;;;;;4953899;28;20420;-80
2024/01/21 01:00:02;;;;;;;13.98;8.38;;;;;;;;;;4940044;28;20458;-80
2024/01/21 01:02:28;;;;;;;13.13;7.78;;;;;;;;;;4953165;28;20492;-80
2024/01/21 01:04:54;;;;;;;13.18;8.13;;;;;;;;;;4952406;28;20424;-80
2024/01/21 01:07:20;;;;;;;13.27;8.55;;;;;;;;;;4920530;28;20465;-80
2024/01/21 01:09:46;;;;;;;12.57;8.10;;;;;;;;;;4936298;28;20430;-80
2024/01/21 01:12:12;;;;;;;11.65;7.80;;;;;;;;;;4953107;28;20401;-80
2024/01/21 01:14:41;;;;;;;12.85;7.63;;;;;;;;;;4952801;28;20441;-80
2024/01/21 01:17:07;;;;;;;12.85;7.80;;;;;;;;;;4936589;29;20410;-80
2024/01/21 01:19:33;;;;;;;12.30;7.65;;;;;;;;;;4951583;28;20484;-80
2024/01/21 01:21:59;;;;;;;11.55;7.80;;;;;;;;;;4935548;29;20430;-80
2024/01/21 01:24:26;;;;;;;12.73;8.20;;;;;;;;;;4936316;29;20417;-80
2024/01/21 01:26:52;;;;;;;12.88;7.60;;;;;;;;;;4952705;28;20744;-80
2024/01/21 01:29:18;;;;;;;12.40;7.57;;;;;;;;;;4946047;28;20437;-80
2024/01/21 01:31:44;;;;;;;11.50;7.47;;;;;;;;;;4952476;28;20413;-80
2024/01/21 01:34:11;;;;;;;13.15;7.80;;;;;;;;;;4955631;28;20404;-80
2024/01/21 01:36:37;;;;;;;12.35;7.55;;;;;;;;;;4959763;28;20425;-80
2024/01/21 01:39:03;;;;;;;11.30;7.05;;;;;;;;;;4936701;29;20414;-80
2024/01/21 01:41:29;;;;;;;11.23;7.30;;;;;;;;;;4936104;28;20422;-80
2024/01/21 01:43:55;;;;;;;10.10;6.43;;;;;;;;;;4936529;28;20476;-80
2024/01/21 01:46:22;;;;;;;12.23;6.78;;;;;;;;;;4951574;28;20418;-80
2024/01/21 01:48:48;;;;;;;12.35;7.18;;;;;;;;;;4936215;29;20565;-80
2024/01/21 01:51:14;;;;;;;9.82;6.55;;;;;;;;;;4952338;29;20787;-80
2024/01/21 01:53:41;;;;;;;11.10;6.75;;;;;;;;;;4951317;28;20426;-80
2024/01/21 01:56:08;;;;;;;11.85;6.57;;;;;;;;;;4952267;28;20479;-80
2024/01/21 01:58:35;;;;;;;10.68;6.80;;;;;;;;;;4953136;28;20401;-80
2024/01/21 02:01:01;;;;;;;10.38;6.82;;;;;;;;;;4953132;28;20500;-80
2024/01/21 02:03:28;;;;;;;11.20;6.40;;;;;;;;;;4953463;28;20445;-80
2024/01/21 02:05:54;;;;;;;10.90;6.18;;;;;;;;;;4951136;28;20417;-80
2024/01/21 02:08:20;;;;;;;10.05;6.22;;;;;;;;;;4951445;28;20440;-80
2024/01/21 02:10:46;;;;;;;10.80;6.33;;;;;;;;;;4953236;28;20506;-80
2024/01/21 02:13:12;;;;;;;10.55;6.00;;;;;;;;;;4936060;29;20409;-80
2024/01/21 02:15:39;;;;;;;11.20;5.90;;;;;;;;;;4935681;29;20406;-80
2024/01/21 02:18:05;;;;;;;9.68;5.97;;;;;;;;;;4951423;28;20867;-80
2024/01/21 02:20:31;;;;;;;9.55;5.80;;;;;;;;;;4951997;28;20437;-80
2024/01/21 02:23:00;;;;;;;9.40;5.80;;;;;;;;;;4953104;28;20480;-80
2024/01/21 02:25:26;;;;;;;8.63;5.60;;;;;;;;;;4952967;28;20429;-80
2024/01/21 02:27:52;;;;;;;8.73;5.75;;;;;;;;;;4939736;28;20413;-80
2024/01/21 02:30:18;;;;;;;8.68;5.53;;;;;;;;;;4954672;28;20442;-80
2024/01/21 02:32:44;;;;;;;9.02;5.55;;;;;;;;;;4947296;28;20410;-80
2024/01/21 02:35:10;;;;;;;9.07;5.40;;;;;;;;;;4946231;28;20417;-80
2024/01/21 02:37:36;;;;;;;8.93;5.60;;;;;;;;;;4954988;28;20406;-80
2024/01/21 02:40:02;;;;;;;9.00;5.40;;;;;;;;;;4942493;28;20898;-80
2024/01/21 02:42:28;;;;;;;9.45;5.88;;;;;;;;;;4938355;29;20500;-80
2024/01/21 02:44:55;;;;;;;8.00;5.13;;;;;;;;;;4956447;28;20416;-80
2024/01/21 02:47:24;;;;;;;8.95;5.68;;;;;;;;;;4955265;28;20410;-80
2024/01/21 02:49:50;;;;;;;9.40;5.70;;;;;;;;;;4954578;28;20441;-80
2024/01/21 02:52:16;;;;;;;8.57;5.20;;;;;;;;;;4939105;29;20413;-80
2024/01/21 02:54:42;;;;;;;8.10;5.10;;;;;;;;;;4954689;28;20441;-80
2024/01/21 02:57:08;;;;;;;7.47;5.00;;;;;;;;;;4937454;28;20460;-80
2024/01/21 02:59:35;;;;;;;8.48;5.03;;;;;;;;;;4938725;28;20413;-80
2024/01/21 03:02:01;;;;;;;8.20;4.95;;;;;;;;;;4938684;29;20821;-79
2024/01/21 03:04:27;;;;;;;7.97;4.60;;;;;;;;;;4923214;29;20468;-80
2024/01/21 03:06:53;;;;;;;8.02;4.60;;;;;;;;;;4938704;29;20425;-80
2024/01/21 03:09:19;;;;;;;8.25;4.68;;;;;;;;;;4954390;28;20942;-80
2024/01/21 03:11:45;;;;;;;8.73;4.80;;;;;;;;;;4948869;28;20408;-80
2024/01/21 03:14:11;;;;;;;7.50;4.45;;;;;;;;;;4937415;29;20408;-80
2024/01/21 03:16:37;;;;;;;7.17;4.27;;;;;;;;;;4937140;29;20550;-80
2024/01/21 03:19:03;;;;;;;7.35;4.72;;;;;;;;;;4950390;28;20426;-80
2024/01/21 03:21:29;;;;;;;6.90;4.35;;;;;;;;;;4953995;28;20422;-79
2024/01/21 03:23:55;;;;;;;7.25;4.10;;;;;;;;;;4954599;28;20770;-80
2024/01/21 03:26:21;;;;;;;6.35;3.90;;;;;;;;;;4938857;28;20418;-80
2024/01/21 03:28:47;;;;;;;6.50;4.03;;;;;;;;;;4921977;29;20535;-83
2024/01/21 03:31:13;;;;;;;7.45;4.00;;;;;;;;;;4938141;29;20421;-80
2024/01/21 03:33:39;;;;;;;6.60;3.55;;;;;;;;;;4955101;28;20468;-82
2024/01/21 03:36:05;;;;;;;6.40;4.10;;;;;;;;;;4954402;28;20428;-81
2024/01/21 03:38:32;;;;;;;7.93;3.80;;;;;;;;;;4952306;28;20428;-82
2024/01/21 03:40:58;;;;;;;6.57;3.90;;;;;;;;;;4945355;29;20410;-83
2024/01/21 03:43:24;;;;;;;5.55;3.72;;;;;;;;;;4954804;29;20783;-83
2024/01/21 03:45:50;;;;;;;6.03;3.80;;;;;;;;;;4949590;28;20951;-83
2024/01/21 03:48:16;;;;;;;6.35;3.70;;;;;;;;;;4938983;28;20760;-83
2024/01/21 03:50:42;;;;;;;6.28;3.60;;;;;;;;;;4938640;29;20436;-83
2024/01/21 03:53:08;;;;;;;7.80;3.20;;;;;;;;;;4930693;29;20912;-83
2024/01/21 03:55:34;;;;;;;5.68;3.50;;;;;;;;;;4941221;28;20442;-83
2024/01/21 03:58:00;;;;;;;6.75;3.22;;;;;;;;;;4954194;28;20406;-83
2024/01/21 04:00:26;;;;;;;6.40;3.20;;;;;;;;;;4911493;28;20423;-83
2024/01/21 04:02:52;;;;;;;5.78;3.40;;;;;;;;;;4927932;29;20435;-83
2024/01/21 04:05:18;;;;;;;6.22;3.10;;;;;;;;;;4937781;29;20430;-83
2024/01/21 04:07:44;;;;;;;6.82;3.45;;;;;;;;;;4921935;29;20420;-83
2024/01/21 04:10:11;;;;;;;6.90;3.33;;;;;;;;;;4943168;28;20430;-83
2024/01/21 04:12:37;;;;;;;5.90;3.08;;;;;;;;;;4935383;29;20485;-83
2024/01/21 04:15:04;;;;;;;4.90;3.13;;;;;;;;;;4922877;29;20406;-83
2024/01/21 04:17:30;;;;;;;5.20;3.17;;;;;;;;;;4938349;29;20410;-83
2024/01/21 04:19:56;;;;;;;5.60;2.93;;;;;;;;;;4941673;28;20436;-83
2024/01/21 04:22:22;;;;;;;5.45;3.13;;;;;;;;;;4949260;29;20418;-82
2024/01/21 04:24:49;;;;;;;6.55;3.13;;;;;;;;;;4953598;28;20441;-83
2024/01/21 04:27:15;;;;;;;4.47;2.80;;;;;;;;;;4953756;28;20420;-83
2024/01/21 04:29:41;;;;;;;4.88;2.70;;;;;;;;;;4933205;29;20434;-83
2024/01/21 04:32:07;;;;;;;5.30;3.10;;;;;;;;;;4953099;28;20417;-83
2024/01/21 04:34:33;;;;;;;5.40;2.97;;;;;;;;;;4933445;29;20914;-83
2024/01/21 04:37:01;;;;;;;5.28;2.90;;;;;;;;;;4950330;28;20457;-83
2024/01/21 04:39:27;;;;;;;5.00;2.73;;;;;;;;;;4953591;28;20405;-82
2024/01/21 04:41:54;;;;;;;4.87;2.90;;;;;;;;;;4953699;28;20433;-82
2024/01/21 04:44:20;;;;;;;5.32;2.90;;;;;;;;;;4953659;28;20418;-81
2024/01/21 04:46:46;;;;;;;5.27;2.83;;;;;;;;;;4936640;29;20536;-78
2024/01/21 04:49:12;;;;;;;6.18;3.10;;;;;;;;;;4937143;29;20433;-79
2024/01/21 04:51:38;;;;;;;5.45;2.90;;;;;;;;;;4952633;29;20420;-80
2024/01/21 04:54:04;;;;;;;5.32;2.72;;;;;;;;;;4951857;28;21298;-80
2024/01/21 04:56:30;;;;;;;4.83;2.80;;;;;;;;;;4949028;28;20417;-80
2024/01/21 04:58:56;;;;;;;6.15;3.33;;;;;;;;;;4949692;28;20419;-79
2024/01/21 05:01:23;;;;;;;5.47;3.05;;;;;;;;;;4945035;28;20914;-79
2024/01/21 05:03:50;;;;;;;5.85;2.90;;;;;;;;;;4936604;28;20461;-79
2024/01/21 05:06:16;;;;;;;4.15;2.60;;;;;;;;;;4952362;28;20417;-79
2024/01/21 05:08:42;;;;;;;4.85;2.83;;;;;;;;;;4952665;28;20443;-79
2024/01/21 05:11:09;;;;;;;5.65;2.97;;;;;;;;;;4952612;28;20436;-79
2024/01/21 05:13:35;;;;;;;5.63;3.05;;;;;;;;;;4952528;28;20744;-79
2024/01/21 05:16:01;;;;;;;5.05;3.00;;;;;;;;;;4935709;28;20424;-80
2024/01/21 05:18:27;;;;;;;5.05;3.00;;;;;;;;;;4936354;29;20740;-80
2024/01/21 05:20:53;;;;;;;4.73;2.83;;;;;;;;;;4935215;28;20906;-80
2024/01/21 05:23:20;;;;;;;4.85;2.83;;;;;;;;;;4920939;28;20815;-80
2024/01/21 05:25:50;;;;;;;5.40;2.92;;;;;;;;;;4952271;28;20924;-80
2024/01/21 05:28:16;;;;;;;6.53;3.22;;;;;;;;;;4950875;28;20489;-80
2024/01/21 05:30:42;;;;;;;5.13;2.70;;;;;;;;;;4953185;28;20953;-80
2024/01/21 05:33:08;;;;;;;6.20;3.23;;;;;;;;;;4952809;28;20436;-80
2024/01/21 05:35:34;;;;;;;4.78;2.97;;;;;;;;;;4936189;29;20421;-80
2024/01/21 05:38:00;;;;;;;5.22;3.10;;;;;;;;;;4951548;28;20421;-79
2024/01/21 05:40:26;;;;;;;5.03;3.08;;;;;;;;;;4951851;28;20926;-79
2024/01/21 05:42:52;;;;;;;6.20;3.40;;;;;;;;;;4952490;28;20453;-80
2024/01/21 05:45:19;;;;;;;5.37;2.80;;;;;;;;;;4934366;29;20434;-79
2024/01/21 05:47:45;;;;;;;5.10;2.97;;;;;;;;;;4935766;28;20453;-79
2024/01/21 05:50:11;;;;;;;7.80;3.10;;;;;;;;;;4919319;29;21003;-79
2024/01/21 05:52:37;;;;;;;6.47;3.20;;;;;;;;;;4952433;29;20456;-79
2024/01/21 05:55:04;;;;;;;5.30;3.10;;;;;;;;;;4934591;28;20952;-79
2024/01/21 05:57:30;;;;;;;5.18;3.13;;;;;;;;;;4936930;28;20449;-79
2024/01/21 05:59:56;;;;;;;6.53;3.30;;;;;;;;;;4956035;28;20441;-79
2024/01/21 06:02:22;;;;;;;6.63;3.30;;;;;;;;;;4936857;29;20425;-78
2024/01/21 06:04:50;;;;;;;5.80;3.10;;;;;;;;;;4954166;28;20423;-79
2024/01/21 06:07:16;;;;;;;5.30;3.15;;;;;;;;;;4970913;28;20450;-79
2024/01/21 06:09:42;;;;;;;6.57;3.70;;;;;;;;;;4952194;28;20427;-79
2024/01/21 06:12:08;;;;;;;6.97;3.35;;;;;;;;;;4953883;28;20938;-79
2024/01/21 06:14:34;;;;;;;5.10;3.30;;;;;;;;;;4955324;28;20417;-79
2024/01/21 06:17:02;;;;;;;5.35;3.45;;;;;;;;;;4955557;28;20410;-79
2024/01/21 06:19:28;;;;;;;5.90;3.40;;;;;;;;;;4954838;28;20454;-80
2024/01/21 06:21:54;;;;;;;6.10;3.90;;;;;;;;;;4939239;29;20834;-79
2024/01/21 06:24:20;;;;;;;5.65;3.42;;;;;;;;;;4939852;28;20422;-79
2024/01/21 06:26:46;;;;;;;7.32;3.80;;;;;;;;;;4940747;28;20959;-79
2024/01/21 06:29:13;;;;;;;6.00;3.77;;;;;;;;;;4955495;28;20433;-79
2024/01/21 06:31:39;;;;;;;5.90;3.90;;;;;;;;;;4943905;29;20449;-79
2024/01/21 06:34:05;;;;;;;6.53;3.72;;;;;;;;;;4938940;29;20405;-79
2024/01/21 06:36:31;;;;;;;6.43;3.70;;;;;;;;;;4938447;28;20406;-79
2024/01/21 06:38:57;;;;;;;5.97;3.60;;;;;;;;;;4933117;29;20509;-79
2024/01/21 06:41:23;;;;;;;6.80;4.10;;;;;;;;;;4955182;28;20409;-79
2024/01/21 06:43:49;;;;;;;6.10;3.70;;;;;;;;;;4964636;28;20420;-79
2024/01/21 06:46:16;;;;;;;7.20;4.10;;;;;;;;;;4939064;29;20786;-80
2024/01/21 06:48:42;;;;;;;7.05;4.00;;;;;;;;;;4952663;28;20436;-79
2024/01/21 06:51:20;;;;;;;7.45;3.90;;;;;;;;;;4946800;28;20926;-79
2024/01/21 06:53:46;;;;;;;8.68;4.15;;;;;;;;;;4920362;28;20417;-79
2024/01/21 06:56:12;;;;;;;6.68;4.07;;;;;;;;;;4919466;29;20440;-80
2024/01/21 06:58:38;;;;;;;6.90;4.38;;;;;;;;;;4938357;28;20409;-81
2024/01/21 07:01:05;;;;;;;8.82;4.30;;;;;;;;;;4952524;28;20414;-80
2024/01/21 07:03:31;;;;;;;8.37;4.17;;;;;;;;;;4954089;28;20406;-80
2024/01/21 07:05:57;;;;;;;7.20;3.95;;;;;;;;;;4928467;28;20922;-80
2024/01/21 07:08:23;;;;;;;7.40;4.03;;;;;;;;;;4954466;28;20893;-79
2024/01/21 07:10:49;;;;;;;7.22;3.85;;;;;;;;;;4952725;28;20473;-79
2024/01/21 07:13:15;;;;;;;8.70;4.63;;;;;;;;;;4946205;29;20807;-79
2024/01/21 07:15:41;;;;;;;8.10;4.32;;;;;;;;;;4937497;28;20445;-79
2024/01/21 07:18:09;;;;;;;7.57;4.22;;;;;;;;;;4937210;28;20421;-79
2024/01/21 07:20:35;;;;;;;7.78;4.22;;;;;;;;;;4937158;28;20473;-79
2024/01/21 07:23:01;;;;;;;7.13;4.00;;;;;;;;;;4921533;29;20437;-79
2024/01/21 07:25:27;;;;;;;6.88;4.00;;;;;;;;;;4938036;28;20421;-79
2024/01/21 07:27:53;;;;;;;9.03;4.53;;;;;;;;;;4937898;28;21056;-79
2024/01/21 07:30:19;;;;;;;8.05;5.05;;;;;;;;;;4935769;28;20791;-79
2024/01/21 07:32:45;;;;;;;7.45;4.40;;;;;;;;;;4919229;29;20443;-79
2024/01/21 07:35:12;;;;;;;8.30;4.55;;;;;;;;;;4922840;28;20425;-79
2024/01/21 07:37:38;;;;;;;7.43;4.25;;;;;;;;;;4921796;28;20463;-79
2024/01/21 07:40:05;;;;;;;7.13;4.20;;;;;;;;;;4951517;28;20826;-77
2024/01/21 07:42:31;;;;;;;7.47;4.57;;;;;;;;;;4952049;28;20415;-78
2024/01/21 07:44:58;;;;;;;9.15;4.90;;;;;;;;;;4952640;28;20405;-78
2024/01/21 07:47:24;;;;;;;7.75;4.30;;;;;;;;;;4936750;28;20416;-78
2024/01/21 07:49:50;;;;;;;8.57;4.60;;;;;;;;;;4914967;29;20433;-80
2024/01/21 07:52:17;;;;;;;7.68;4.65;;;;;;;;;;4952658;28;20918;-80
2024/01/21 07:54:43;;;;;;;7.38;4.40;;;;;;;;;;4953832;28;20489;-81
2024/01/21 07:57:09;;;;;;;10.05;4.50;;;;;;;;;;4950311;28;20434;-83
2024/01/21 07:59:35;;;;;;;9.48;4.53;;;;;;;;;;4952786;28;20413;-82
2024/01/21 08:02:02;;;;;;;7.85;4.68;;;;;;;;;;4953951;28;20480;-81
2024/01/21 08:04:28;;;;;;;7.72;4.80;;;;;;;;;;4953757;28;20421;-82
2024/01/21 08:06:54;;;;;;;7.85;4.40;;;;;;;;;;4952908;28;20496;-82
2024/01/21 08:09:21;;;;;;;8.93;4.53;;;;;;;;;;4935674;29;20492;-81
2024/01/21 08:11:47;;;;;;;7.53;5.00;;;;;;;;;;4955215;28;20465;-81
2024/01/21 08:14:13;;;;;;;7.63;4.85;;;;;;;;;;4956289;28;20434;-81
2024/01/21 08:16:39;;;;;;;7.88;4.22;;;;;;;;;;4953444;28;20421;-81
2024/01/21 08:19:05;;;;;;;8.50;5.18;;;;;;;;;;4952156;28;20426;-81
2024/01/21 08:21:31;;;;;;;7.88;4.68;;;;;;;;;;4952077;28;20903;-81
2024/01/21 08:23:57;;;;;;;8.07;4.43;;;;;;;;;;4954351;28;20425;-79
2024/01/21 08:26:23;;;;;;;8.53;4.90;;;;;;;;;;4937411;29;20417;-80
2024/01/21 08:28:49;;;;;;;8.32;4.88;;;;;;;;;;4926247;29;20410;-80
2024/01/21 08:31:16;;;;;;;8.73;5.10;;;;;;;;;;4951525;28;20422;-80
2024/01/21 08:33:42;;;;;;;9.30;4.88;;;;;;;;;;4933173;29;20449;-79
2024/01/21 08:36:08;;;;;;;9.37;4.80;;;;;;;;;;4953358;28;20473;-80
2024/01/21 08:38:35;;;;;;;9.05;4.88;;;;;;;;;;4935666;29;20418;-80
2024/01/21 08:41:01;;;;;;;8.35;4.93;;;;;;;;;;4934458;29;20920;-81
2024/01/21 08:43:27;;;;;;;8.57;5.20;;;;;;;;;;4944518;28;20922;-81
2024/01/21 08:45:53;;;;;;;8.85;4.78;;;;;;;;;;4952192;28;21050;-80
2024/01/21 08:48:19;;;;;;;7.47;4.90;;;;;;;;;;4951338;28;20457;-81
2024/01/21 08:50:46;;;;;;;8.95;4.68;;;;;;;;;;4934604;28;20525;-81
2024/01/21 08:53:12;;;;;;;7.95;4.60;;;;;;;;;;4952208;28;20938;-81
2024/01/21 08:55:38;;;;;;;9.25;5.18;;;;;;;;;;4951181;28;20490;-80
2024/01/21 08:58:04;;;;;;;9.82;4.95;;;;;;;;;;4951284;28;20984;-80
2024/01/21 09:00:30;;;;;;;10.87;5.13;;;;;;;;;;4935167;29;20417;-80
2024/01/21 09:02:56;;;;;;;8.15;5.30;;;;;;;;;;4948837;28;20508;-81
2024/01/21 09:05:22;;;;;;;9.40;5.30;;;;;;;;;;4937115;28;20421;-81
2024/01/21 09:07:48;;;;;;;8.85;5.18;;;;;;;;;;4936236;29;20417;-81
2024/01/21 09:10:14;;;;;;;9.80;5.05;;;;;;;;;;4939841;28;20443;-81
2024/01/21 09:12:40;;;;;;;9.10;5.30;;;;;;;;;;4933272;29;20414;-82
2024/01/21 09:15:07;;;;;;;9.52;5.28;;;;;;;;;;4935781;29;20417;-81
2024/01/21 09:17:33;;;;;;;9.25;5.85;;;;;;;;;;4951692;28;20449;-81
2024/01/21 09:20:00;;;;;;;9.18;5.55;;;;;;;;;;4937345;29;20466;-81
2024/01/21 09:22:26;;;;;;;8.80;5.20;;;;;;;;;;4951827;28;20461;-80
2024/01/21 09:24:52;;;;;;;8.65;5.50;;;;;;;;;;4951710;28;20422;-80
2024/01/21 09:27:18;;;;;;;9.30;5.63;;;;;;;;;;4936216;29;20452;-80
2024/01/21 09:29:44;;;;;;;9.38;5.78;;;;;;;;;;4952207;28;20433;-78
2024/01/21 09:32:11;;;;;;;7.80;4.97;;;;;;;;;;4935287;29;21002;-77
2024/01/21 09:34:41;;;;;;;9.90;5.80;;;;;;;;;;4932822;29;20521;-78
2024/01/21 09:37:07;;;;;;;10.75;5.68;;;;;;;;;;4920215;29;20560;-77
2024/01/21 09:39:33;;;;;;;10.40;5.43;;;;;;;;;;4942165;28;20441;-77
2024/01/21 09:41:59;;;;;;;8.30;5.07;;;;;;;;;;4928573;28;20488;-78
2024/01/21 09:44:26;;;;;;;8.10;5.43;;;;;;;;;;4955901;28;20492;-78
2024/01/21 09:46:53;;;;;;;8.80;5.20;;;;;;;;;;4930679;29;20425;-78
2024/01/21 09:49:20;;;;;;;9.03;5.43;;;;;;;;;;4947848;28;20448;-78
2024/01/21 09:51:47;;;;;;;9.63;5.68;;;;;;;;;;4953382;28;20417;-79
2024/01/21 09:54:13;;;;;;;10.90;5.85;;;;;;;;;;4956092;28;20416;-79
2024/01/21 09:56:40;;;;;;;9.45;5.68;;;;;;;;;;4959514;28;20406;-80
2024/01/21 09:59:08;;;;;;;8.98;5.50;;;;;;;;;;4935239;28;20497;-79
2024/01/21 10:01:35;;;;;;;9.02;5.47;;;;;;;;;;4955288;28;20481;-79
2024/01/21 10:04:01;;;;;;;8.82;5.60;;;;;;;;;;4949469;28;20744;-80
2024/01/21 10:06:27;;;;;;;8.77;5.72;;;;;;;;;;4943780;28;20790;-79
2024/01/21 10:08:53;;;;;;;8.20;5.47;;;;;;;;;;4933951;28;20508;-80
2024/01/21 10:11:21;;;;;;;9.05;6.00;;;;;;;;;;4954174;28;20899;-79
2024/01/21 10:13:47;;;;;;;11.45;5.75;;;;;;;;;;4947801;28;20406;-78
2024/01/21 10:16:13;;;;;;;10.10;6.07;;;;;;;;;;4931500;28;20416;-80
2024/01/21 10:18:39;;;;;;;8.95;5.82;;;;;;;;;;4951806;28;20422;-79
2024/01/21 10:21:06;;;;;;;10.13;5.88;;;;;;;;;;4917804;29;20932;-80
2024/01/21 10:23:33;;;;;;;10.32;5.90;;;;;;;;;;4905582;29;20885;-80
2024/01/21 10:26:00;;;;;;;10.18;5.90;;;;;;;;;;4934647;28;20409;-80
2024/01/21 10:28:28;;;;;;;10.85;5.85;;;;;;;;;;4931544;28;20407;-79
2024/01/21 10:30:54;;;;;;;8.15;5.65;;;;;;;;;;4907277;29;20828;-79
2024/01/21 10:33:20;;;;;;;10.23;6.22;;;;;;;;;;4916871;29;20416;-79
2024/01/21 10:35:48;;;;;;;8.98;6.07;;;;;;;;;;4908387;29;20506;-80
2024/01/21 10:38:14;;;;;;;10.43;6.47;;;;;;;;;;4928722;29;20420;-80
2024/01/21 10:40:43;;;;;;;10.65;6.30;;;;;;;;;;4929368;28;20421;-80
2024/01/21 10:43:16;;;;;;;9.48;6.07;;;;;;;;;;4919327;29;20419;-79
2024/01/21 10:45:44;;;;;;;10.75;6.32;;;;;;;;;;4903597;29;20976;-80
2024/01/21 10:48:11;;;;;;;10.57;6.23;;;;;;;;;;4912032;29;20506;-79
2024/01/21 10:50:41;;;;;;;11.32;6.47;;;;;;;;;;4918350;29;20431;-80
2024/01/21 10:53:08;;;;;;;9.68;6.50;;;;;;;;;;4909253;29;20430;-80
2024/01/21 10:55:35;;;;;;;9.93;6.45;;;;;;;;;;4905493;29;20436;-79
2024/01/21 10:58:01;;;;;;;10.20;6.30;;;;;;;;;;4914272;29;20958;-80
2024/01/21 11:00:27;;;;;;;10.48;6.65;;;;;;;;;;4917139;29;20454;-85
2024/01/21 11:03:12;;;;;;;9.88;6.45;;;;;;;;;;4918378;29;20506;-84
2024/01/21 11:05:38;;;;;;;10.70;6.28;;;;;;;;;;4932576;29;20431;-85
2024/01/21 11:08:05;;;;;;;10.50;7.07;;;;;;;;;;4918595;29;20419;-84
2024/01/21 11:10:31;;;;;;;8.98;5.95;;;;;;;;;;4920832;29;20442;-84
2024/01/21 11:12:57;;;;;;;9.82;6.38;;;;;;;;;;4904814;29;20772;-85
2024/01/21 11:15:30;;;;;;;10.57;6.63;;;;;;;;;;4905736;29;20470;-80
2024/01/21 11:18:08;;;;;;;10.35;6.75;;;;;;;;;;4901869;29;20460;-80
2024/01/21 11:20:34;;;;;;;10.68;6.93;;;;;;;;;;4945907;28;20436;-78
2024/01/21 11:23:00;;;;;;;9.63;6.43;;;;;;;;;;4938046;28;20451;-78
2024/01/21 11:25:35;;;;;;;10.05;6.43;;;;;;;;;;4954108;28;20794;-79
2024/01/21 11:28:04;;;;;;;10.27;6.60;;;;;;;;;;4939753;28;20420;-80
2024/01/21 11:30:30;;;;;;;9.85;6.60;;;;;;;;;;4956448;28;20437;-85
2024/01/21 11:32:59;;;;;;;9.38;6.57;;;;;;;;;;4952254;28;20501;-80
2024/01/21 11:35:28;;;;;;;10.47;6.43;;;;;;;;;;4938501;29;20516;-80
2024/01/21 11:37:54;;;;;;;12.35;7.05;;;;;;;;;;4935991;28;20962;-80
2024/01/21 11:40:21;;;;;;;11.00;6.97;;;;;;;;;;4922715;28;20473;-78
2024/01/21 11:42:50;;;;;;;10.32;6.78;;;;;;;;;;4921735;28;20418;-79
2024/01/21 11:45:16;;;;;;;10.77;6.82;;;;;;;;;;4922007;29;20406;-78
2024/01/21 11:47:42;;;;;;;12.40;7.28;;;;;;;;;;4955687;28;20562;-82
2024/01/21 11:50:09;;;;;;;10.00;6.47;;;;;;;;;;4937398;28;20972;-78
2024/01/21 11:52:36;;;;;;;11.40;7.20;;;;;;;;;;4953040;28;20430;-78
2024/01/21 11:55:03;;;;;;;10.60;6.47;;;;;;;;;;4940184;28;20909;-78
2024/01/21 11:57:29;;;;;;;10.97;6.90;;;;;;;;;;4936682;28;20406;-76
2024/01/21 11:59:55;;;;;;;12.43;7.05;;;;;;;;;;4953630;28;20851;-78
2024/01/21 12:02:21;;;;;;;11.23;7.32;;;;;;;;;;4953108;28;20513;-78
2024/01/21 12:04:47;;;;;;;12.48;7.20;;;;;;;;;;4944741;28;20510;-79
2024/01/21 12:07:14;;;;;;;11.75;7.70;;;;;;;;;;4932554;28;21521;-79
2024/01/21 12:09:40;;;;;;;13.43;8.00;;;;;;;;;;4936479;28;20486;-79
2024/01/21 12:12:08;;;;;;;11.30;7.40;;;;;;;;;;4937191;29;20434;-79
2024/01/21 12:14:37;;;;;;;12.57;7.70;;;;;;;;;;4936784;28;20410;-85
2024/01/21 12:17:03;;;;;;;13.80;7.83;;;;;;;;;;4943260;29;20422;-86
2024/01/21 12:19:30;;;;;;;11.30;7.55;;;;;;;;;;4942172;29;20923;-84
2024/01/21 12:21:56;;;;;;;12.88;7.78;;;;;;;;;;4921648;28;20759;-79
2024/01/21 12:24:26;;;;;;;20.27;8.68;;;;;;;;;;4935597;29;20464;-79
2024/01/21 12:26:55;;;;;;;12.95;7.43;;;;;;;;;;4951985;28;20440;-79
2024/01/21 12:29:21;;;;;;;11.70;7.47;;;;;;;;;;4951582;28;20569;-79
2024/01/21 12:31:50;;;;;;;13.00;8.05;;;;;;;;;;4952579;28;20432;-79
2024/01/21 12:34:18;;;;;;;13.00;7.57;;;;;;;;;;4952139;28;20422;-79
2024/01/21 12:36:46;;;;;;;13.73;7.43;;;;;;;;;;4936633;29;20481;-79
2024/01/21 12:39:13;;;;;;;11.13;7.82;;;;;;;;;;4936075;28;20456;-79
2024/01/21 12:41:39;;;;;;;16.17;8.60;;;;;;;;;;4935629;28;20414;-79
2024/01/21 12:44:05;;;;;;;12.80;8.37;;;;;;;;;;4952022;28;20469;-79
2024/01/21 12:46:32;;;;;;;14.10;8.75;;;;;;;;;;4945447;28;20433;-80
2024/01/21 12:48:58;;;;;;;14.38;8.82;;;;;;;;;;4936308;28;20417;-80
2024/01/21 12:51:25;;;;;;;14.07;8.95;;;;;;;;;;4935519;29;20406;-79
2024/01/21 12:53:52;;;;;;;13.25;8.63;;;;;;;;;;4935840;29;20418;-80
2024/01/21 12:56:18;;;;;;;14.98;8.57;;;;;;;;;;4956470;28;20405;-79
2024/01/21 12:58:44;;;;;;;16.75;8.90;;;;;;;;;;4936612;29;20465;-85
2024/01/21 13:01:11;;;;;;;13.35;8.93;;;;;;;;;;4936474;28;20446;-85
2024/01/21 13:03:40;;;;;;;16.17;8.98;;;;;;;;;;4947765;28;20436;-80
2024/01/21 13:06:07;;;;;;;14.73;9.38;;;;;;;;;;4919211;29;20414;-86
2024/01/21 13:08:34;;;;;;;15.93;9.80;;;;;;;;;;4951629;28;20410;-85
2024/01/21 13:11:48;;;;;;;16.30;9.68;;;;;;;;;;5159268;27;20346;-78
2024/01/21 13:14:14;;;;;;;15.50;9.10;;;;;;;;;;5113276;27;20390;-85
2024/01/21 13:16:40;;;;;;;14.10;9.18;;;;;;;;;;5134014;27;20430;-85
2024/01/21 13:19:08;;;;;;;16.85;9.45;;;;;;;;;;5106401;28;20394;-79
2024/01/21 13:21:34;;;;;;;16.10;9.38;;;;;;;;;;5091115;28;20419;-79
2024/01/21 13:24:00;;;;;;;18.40;10.00;;;;;;;;;;5094034;28;20395;-79
2024/01/21 13:26:26;;;;;;;16.38;10.52;;;;;;;;;;5110208;28;20399;-79
2024/01/21 13:31:34;;;;;;;19.17;10.48;;;;;;;;;;5101722;27;21019;-79
2024/01/21 13:34:04;;;;;;;15.73;9.65;;;;;;;;;;5094652;28;20449;-78
2024/01/21 13:36:30;;;;;;;14.38;9.30;;;;;;;;;;5074462;27;20430;-79
2024/01/21 13:38:56;;;;;;;18.00;9.80;;;;;;;;;;5093206;28;20391;-79
2024/01/21 13:41:23;;;;;;;15.95;9.55;;;;;;;;;;5105073;28;20413;-79
2024/01/21 13:43:49;;;;;;;18.83;10.15;;;;;;;;;;5119230;27;20420;-79
2024/01/21 13:46:18;;;;;;;16.80;10.00;;;;;;;;;;5092198;28;20407;-85
2024/01/21 13:48:46;;;;;;;16.93;9.93;;;;;;;;;;5090470;28;20400;-84
2024/01/21 13:51:12;;;;;;;15.60;9.27;;;;;;;;;;5093286;27;20431;-79
2024/01/21 13:53:39;;;;;;;15.85;10.10;;;;;;;;;;5091768;28;20403;-84
2024/01/21 13:56:05;;;;;;;19.70;10.90;;;;;;;;;;5093144;28;20424;-80
2024/01/21 13:58:31;;;;;;;18.67;10.65;;;;;;;;;;5077287;28;20405;-85
2024/01/21 14:00:57;;;;;;;18.77;9.93;;;;;;;;;;5109154;28;20419;-83
2024/01/21 14:03:23;;;;;;;16.23;9.18;;;;;;;;;;5094325;28;20431;-78
2024/01/21 14:05:49;;;;;;;17.23;9.90;;;;;;;;;;5068897;28;20424;-83
2024/01/21 14:08:15;;;;;;;17.23;10.43;;;;;;;;;;5091504;27;20403;-82
2024/01/21 14:10:41;;;;;;;17.90;10.65;;;;;;;;;;5092890;28;20434;-79
2024/01/21 14:13:08;;;;;;;18.80;10.52;;;;;;;;;;5109805;28;20400;-83
2024/01/21 14:15:34;;;;;;;16.63;9.60;;;;;;;;;;5116955;28;20404;-78
2024/01/21 14:18:02;;;;;;;16.33;9.55;;;;;;;;;;5109498;28;20725;-79
2024/01/21 14:20:28;;;;;;;18.37;10.10;;;;;;;;;;5089209;28;20428;-82
2024/01/21 14:22:54;;;;;;;15.32;9.43;;;;;;;;;;5073683;28;20896;-79
2024/01/21 14:25:24;;;;;;;15.55;9.60;;;;;;;;;;5063497;28;20439;-79
2024/01/21 14:27:51;;;;;;;17.97;9.80;;;;;;;;;;5095175;28;20413;-79
2024/01/21 14:30:22;;;;;;;17.70;9.85;;;;;;;;;;5081982;28;20502;-78
2024/01/21 14:32:48;;;;;;;19.37;9.63;;;;;;;;;;5079640;28;20408;-78
2024/01/21 14:35:17;;;;;;;16.77;9.65;;;;;;;;;;5078015;28;20393;-78